Time;durP1;ratioP1;P1;durP2;ratioP2;P2;SDS_P1;SDS_P2;PMS_P1;PMS_P2;Temp;Humidity;BMP_temperature;BMP_pressure;BME280_temperature;BME280_humidity;BME280_pressure;Samples;Min_cycle;Max_cycle;Signal;HPM_P1;HPM_P2
2022/03/24 00:01:40;;;;;;;45.10;27.88;;;6.20;99.90;;;;;;5028851;28;20051;-74
2022/03/24 00:04:05;;;;;;;48.72;28.13;;;6.20;99.90;;;;;;5011136;28;20045;-74
2022/03/24 00:06:31;;;;;;;53.92;30.40;;;6.20;99.90;;;;;;5036703;28;20069;-75
2022/03/24 00:08:57;;;;;;;47.10;27.90;;;6.10;99.90;;;;;;5028982;28;20397;-74
2022/03/24 00:11:22;;;;;;;48.60;27.15;;;6.10;99.90;;;;;;5029385;28;20037;-75
2022/03/24 00:13:48;;;;;;;52.45;28.20;;;6.00;99.90;;;;;;5028832;28;20044;-74
2022/03/24 00:16:15;;;;;;;49.72;30.52;;;6.00;99.90;;;;;;5033211;28;20049;-74
2022/03/24 00:18:41;;;;;;;46.67;29.02;;;6.00;99.90;;;;;;5027385;28;20444;-75
2022/03/24 00:21:08;;;;;;;50.47;27.50;;;5.90;99.90;;;;;;5030430;28;20051;-74
2022/03/24 00:23:34;;;;;;;48.97;29.80;;;5.90;99.90;;;;;;5028891;28;20077;-74
2022/03/24 00:26:00;;;;;;;48.55;28.55;;;5.90;99.90;;;;;;5028752;28;20064;-74
2022/03/24 00:28:26;;;;;;;50.10;30.30;;;5.80;99.90;;;;;;5028450;28;20044;-74
2022/03/24 00:30:52;;;;;;;46.40;28.45;;;5.80;99.90;;;;;;5030196;28;20045;-74
2022/03/24 00:33:18;;;;;;;44.25;27.73;;;5.80;99.90;;;;;;5028241;28;20111;-74
2022/03/24 00:35:44;;;;;;;55.47;30.73;;;5.70;99.90;;;;;;5028698;28;20045;-74
2022/03/24 00:38:09;;;;;;;49.00;28.52;;;5.70;99.90;;;;;;5031066;28;20444;-74
2022/03/24 00:40:35;;;;;;;48.72;28.48;;;5.70;99.90;;;;;;5027313;28;20034;-74
2022/03/24 00:43:01;;;;;;;52.83;28.85;;;5.90;99.90;;;;;;5040379;28;20119;-74
2022/03/24 00:45:27;;;;;;;51.33;29.77;;;5.70;99.90;;;;;;5030142;28;20038;-74
2022/03/24 00:47:53;;;;;;;53.03;29.25;;;5.60;99.90;;;;;;5027378;28;20094;-74
2022/03/24 00:50:19;;;;;;;52.17;29.52;;;5.60;99.90;;;;;;5028390;28;20087;-74
2022/03/24 00:52:45;;;;;;;51.97;28.88;;;5.60;99.90;;;;;;5030919;28;20041;-75
2022/03/24 00:55:15;;;;;;;58.38;29.23;;;5.50;99.90;;;;;;5029119;28;20037;-74
2022/03/24 00:57:43;;;;;;;55.28;29.17;;;5.50;99.90;;;;;;5029253;28;20049;-74
2022/03/24 01:00:12;;;;;;;49.50;29.17;;;5.40;99.90;;;;;;5029902;28;20041;-74
2022/03/24 01:02:37;;;;;;;52.28;29.05;;;5.40;99.90;;;;;;5030862;28;20048;-74
2022/03/24 01:05:08;;;;;;;50.05;28.40;;;5.40;99.90;;;;;;5030904;28;20049;-74
2022/03/24 01:07:34;;;;;;;50.47;29.48;;;5.30;99.90;;;;;;5010850;28;20037;-74
2022/03/24 01:10:00;;;;;;;50.95;28.88;;;5.30;99.90;;;;;;5010415;28;20424;-74
2022/03/24 01:12:26;;;;;;;52.88;30.45;;;5.30;99.90;;;;;;5031456;28;20076;-74
2022/03/24 01:14:51;;;;;;;53.55;29.20;;;5.30;99.90;;;;;;5028437;28;20111;-74
2022/03/24 01:17:17;;;;;;;49.75;29.30;;;5.30;99.90;;;;;;5033078;28;20037;-74
2022/03/24 01:19:44;;;;;;;58.25;30.55;;;5.20;99.90;;;;;;5029609;28;20064;-74
2022/03/24 01:22:10;;;;;;;52.50;29.52;;;5.20;99.90;;;;;;5034251;28;20042;-74
2022/03/24 01:24:38;;;;;;;57.20;30.52;;;5.20;99.90;;;;;;5031983;28;20045;-74
2022/03/24 01:27:05;;;;;;;59.03;31.05;;;5.20;99.90;;;;;;5031743;28;20042;-74
2022/03/24 01:29:34;;;;;;;48.35;29.58;;;5.10;99.90;;;;;;5030043;28;20037;-74
2022/03/24 01:32:00;;;;;;;53.95;31.92;;;5.10;99.90;;;;;;5031412;28;20112;-74
2022/03/24 01:34:26;;;;;;;51.70;31.02;;;5.00;99.90;;;;;;5029762;28;20513;-74
2022/03/24 01:36:52;;;;;;;47.63;27.80;;;5.00;99.90;;;;;;5033308;28;20071;-76
2022/03/24 01:39:18;;;;;;;52.78;31.13;;;5.00;99.90;;;;;;5031620;28;20128;-74
2022/03/24 01:41:48;;;;;;;53.08;30.33;;;4.90;99.90;;;;;;5035561;28;20190;-75
2022/03/24 01:44:18;;;;;;;52.10;28.42;;;4.90;99.90;;;;;;5033621;28;20239;-75
2022/03/24 01:47:01;;;;;;;55.45;31.05;;;4.80;99.90;;;;;;5024985;28;20287;-75
2022/03/24 01:49:31;;;;;;;52.55;30.45;;;4.80;99.90;;;;;;5027872;28;20029;-74
2022/03/24 01:51:58;;;;;;;47.75;29.77;;;4.80;99.90;;;;;;5026130;28;20046;-74
2022/03/24 01:54:27;;;;;;;47.83;28.92;;;4.80;99.90;;;;;;5028526;28;20034;-75
2022/03/24 01:56:53;;;;;;;56.95;29.73;;;4.70;99.90;;;;;;5025244;28;20037;-75
2022/03/24 01:59:20;;;;;;;46.42;28.55;;;4.80;99.90;;;;;;5030842;28;20045;-74
2022/03/24 02:01:46;;;;;;;57.15;30.83;;;4.70;99.90;;;;;;5036341;28;20128;-75
2022/03/24 02:04:14;;;;;;;51.03;29.17;;;4.60;99.90;;;;;;5032147;28;20110;-76
2022/03/24 02:06:40;;;;;;;55.35;31.10;;;4.70;99.90;;;;;;5012850;28;20499;-75
2022/03/24 02:09:06;;;;;;;56.42;30.55;;;4.60;99.90;;;;;;5031847;28;20124;-75
2022/03/24 02:11:33;;;;;;;48.80;29.95;;;4.60;99.90;;;;;;5031596;28;20029;-75
2022/03/24 02:14:00;;;;;;;54.08;30.10;;;4.60;99.90;;;;;;5033025;28;20061;-75
2022/03/24 02:16:31;;;;;;;52.80;31.48;;;4.50;99.90;;;;;;5013319;28;20041;-75
2022/03/24 02:18:59;;;;;;;52.88;31.40;;;4.50;99.90;;;;;;5031655;28;20037;-75
2022/03/24 02:21:27;;;;;;;53.53;32.08;;;4.50;99.90;;;;;;5031109;28;20045;-75
2022/03/24 02:23:53;;;;;;;53.85;31.88;;;4.50;99.90;;;;;;5034587;28;20195;-76
2022/03/24 02:26:19;;;;;;;55.85;30.58;;;4.50;99.90;;;;;;5030529;28;20168;-75
2022/03/24 02:28:45;;;;;;;60.20;30.85;;;4.40;99.90;;;;;;5017909;28;21362;-74
2022/03/24 02:31:14;;;;;;;58.08;31.27;;;4.40;99.90;;;;;;5034111;28;20038;-75
2022/03/24 02:33:40;;;;;;;58.55;32.35;;;4.40;99.90;;;;;;5033537;28;20055;-74
2022/03/24 02:36:07;;;;;;;58.15;31.77;;;4.30;99.90;;;;;;5028290;28;20055;-75
2022/03/24 02:38:33;;;;;;;58.10;33.17;;;4.30;99.90;;;;;;5031046;28;20487;-75
2022/03/24 02:40:59;;;;;;;57.20;32.03;;;4.40;99.90;;;;;;5028403;28;20043;-75
2022/03/24 02:43:25;;;;;;;56.47;31.73;;;4.30;99.90;;;;;;5032740;28;20120;-75
2022/03/24 02:45:53;;;;;;;57.13;31.80;;;4.20;99.90;;;;;;5030922;28;20833;-74
2022/03/24 02:48:21;;;;;;;60.20;32.83;;;4.30;99.90;;;;;;5032383;28;20056;-75
2022/03/24 02:50:48;;;;;;;54.88;32.35;;;4.20;99.90;;;;;;5031169;28;20388;-74
2022/03/24 02:53:15;;;;;;;56.28;32.75;;;4.20;99.90;;;;;;5032012;28;20037;-74
2022/03/24 02:55:41;;;;;;;56.70;31.85;;;4.20;99.90;;;;;;5032271;28;20129;-75
2022/03/24 02:58:06;;;;;;;58.40;32.90;;;4.10;99.90;;;;;;5032351;28;20139;-75
2022/03/24 03:00:32;;;;;;;58.80;33.10;;;4.10;99.90;;;;;;5012101;28;20087;-75
2022/03/24 03:02:58;;;;;;;55.22;32.13;;;4.10;99.90;;;;;;5032435;28;20080;-74
2022/03/24 03:05:24;;;;;;;58.85;32.92;;;4.20;99.90;;;;;;5032140;28;20045;-74
2022/03/24 03:07:51;;;;;;;58.15;32.58;;;4.10;99.90;;;;;;5031445;28;20048;-74
2022/03/24 03:10:17;;;;;;;61.33;33.60;;;4.10;99.90;;;;;;5031060;28;20449;-75
2022/03/24 03:12:46;;;;;;;58.08;34.10;;;4.00;99.90;;;;;;5027383;28;20044;-75
2022/03/24 03:15:13;;;;;;;56.40;33.42;;;4.00;99.90;;;;;;5030262;28;20049;-74
2022/03/24 03:17:38;;;;;;;59.35;32.83;;;4.00;99.90;;;;;;5028329;28;20125;-74
2022/03/24 03:20:05;;;;;;;59.90;33.42;;;3.90;99.90;;;;;;5029973;28;20145;-75
2022/03/24 03:22:32;;;;;;;63.88;33.63;;;3.90;99.90;;;;;;5027309;28;20065;-74
2022/03/24 03:24:59;;;;;;;61.30;34.08;;;3.90;99.90;;;;;;5028425;28;20045;-76
2022/03/24 03:27:27;;;;;;;58.92;34.20;;;3.90;99.90;;;;;;5030574;28;20115;-75
2022/03/24 03:29:53;;;;;;;59.08;34.45;;;3.90;99.90;;;;;;5030363;28;20048;-75
2022/03/24 03:32:21;;;;;;;60.80;35.55;;;3.80;99.90;;;;;;5027456;28;20045;-74
2022/03/24 03:34:48;;;;;;;60.58;35.08;;;3.80;99.90;;;;;;5031970;28;20076;-75
2022/03/24 03:37:14;;;;;;;66.68;34.22;;;3.90;99.90;;;;;;5029808;28;20049;-75
2022/03/24 03:39:40;;;;;;;60.53;34.83;;;3.90;99.90;;;;;;5029219;28;20568;-75
2022/03/24 03:42:07;;;;;;;60.88;33.50;;;3.80;99.90;;;;;;5028918;28;20438;-75
2022/03/24 03:44:34;;;;;;;63.17;35.38;;;3.70;99.90;;;;;;5032140;28;20033;-75
2022/03/24 03:47:01;;;;;;;64.35;34.00;;;3.70;99.90;;;;;;5030051;28;20495;-75
2022/03/24 03:49:27;;;;;;;64.68;36.08;;;3.70;99.90;;;;;;5029335;28;20103;-75
2022/03/24 03:51:53;;;;;;;63.63;33.50;;;3.70;99.90;;;;;;5011441;28;20446;-75
2022/03/24 03:54:20;;;;;;;61.65;33.58;;;3.70;99.90;;;;;;5028540;28;20037;-75
2022/03/24 03:56:46;;;;;;;62.05;34.13;;;3.60;99.90;;;;;;5028417;28;20041;-75
2022/03/24 03:59:12;;;;;;;60.55;35.53;;;3.60;99.90;;;;;;5028038;28;20117;-75
2022/03/24 04:01:38;;;;;;;65.05;35.65;;;3.60;99.90;;;;;;5028025;28;20044;-75
2022/03/24 04:04:05;;;;;;;62.15;34.65;;;3.50;99.90;;;;;;5028250;28;20108;-75
2022/03/24 04:06:30;;;;;;;63.65;33.88;;;3.50;99.90;;;;;;5026259;28;20056;-75
2022/03/24 04:08:56;;;;;;;64.93;35.55;;;3.50;99.90;;;;;;5028183;28;20673;-75
2022/03/24 04:11:22;;;;;;;63.63;35.97;;;3.50;99.90;;;;;;5010151;28;20053;-75
2022/03/24 04:13:48;;;;;;;69.65;38.50;;;3.40;99.90;;;;;;5028204;28;20038;-75
2022/03/24 04:16:14;;;;;;;67.20;38.38;;;3.40;99.90;;;;;;5026861;28;20752;-74
2022/03/24 04:18:40;;;;;;;61.25;33.30;;;3.40;99.90;;;;;;5027324;28;20140;-74
2022/03/24 04:21:07;;;;;;;60.60;34.72;;;3.30;99.90;;;;;;5026062;28;20050;-74
2022/03/24 04:23:34;;;;;;;72.72;37.28;;;3.30;99.90;;;;;;5027616;28;20045;-74
2022/03/24 04:26:00;;;;;;;64.65;34.88;;;3.30;99.90;;;;;;5027426;28;20041;-74
2022/03/24 04:28:26;;;;;;;66.78;36.40;;;3.30;99.90;;;;;;5028388;28;20060;-75
2022/03/24 04:30:52;;;;;;;59.65;33.10;;;3.50;99.90;;;;;;5025114;28;20030;-74
2022/03/24 04:33:18;;;;;;;68.25;36.42;;;3.20;99.90;;;;;;5027987;28;20456;-74
2022/03/24 04:35:44;;;;;;;69.63;39.20;;;3.20;99.90;;;;;;5027478;28;20053;-74
2022/03/24 04:38:10;;;;;;;76.65;39.72;;;3.20;99.90;;;;;;5027512;28;20233;-74
2022/03/24 04:40:36;;;;;;;63.83;36.17;;;3.20;99.90;;;;;;5027248;28;20557;-74
2022/03/24 04:43:02;;;;;;;72.63;38.13;;;3.10;99.90;;;;;;5026686;28;20029;-74
2022/03/24 04:45:29;;;;;;;67.03;37.30;;;3.10;99.90;;;;;;5026370;28;20588;-74
2022/03/24 04:47:55;;;;;;;72.38;38.47;;;3.10;99.90;;;;;;5028237;28;20041;-74
2022/03/24 04:50:21;;;;;;;70.70;39.30;;;3.10;99.90;;;;;;5026324;28;20069;-74
2022/03/24 04:52:47;;;;;;;72.38;38.67;;;3.10;99.90;;;;;;5028419;28;20069;-74
2022/03/24 04:55:14;;;;;;;83.50;40.55;;;3.10;99.90;;;;;;5030936;28;20037;-74
2022/03/24 04:57:42;;;;;;;71.75;39.80;;;3.10;99.90;;;;;;5014437;28;20138;-75
2022/03/24 05:00:09;;;;;;;76.65;40.30;;;3.10;99.90;;;;;;5030743;28;20056;-75
2022/03/24 05:02:36;;;;;;;73.00;40.35;;;3.10;99.90;;;;;;5030447;28;20052;-75
2022/03/24 05:05:02;;;;;;;72.32;39.17;;;3.00;99.90;;;;;;5031561;28;20508;-75
2022/03/24 05:07:28;;;;;;;68.70;37.85;;;3.00;99.90;;;;;;5031633;28;20120;-75
2022/03/24 05:09:54;;;;;;;76.75;38.38;;;3.00;99.90;;;;;;5031646;28;20180;-75
2022/03/24 05:12:20;;;;;;;74.20;40.92;;;3.00;99.90;;;;;;5032060;28;20367;-76
2022/03/24 05:14:46;;;;;;;73.28;40.25;;;2.90;99.90;;;;;;5025515;28;20095;-75
2022/03/24 05:17:12;;;;;;;82.53;42.13;;;2.90;99.90;;;;;;5010112;28;20072;-75
2022/03/24 05:19:44;;;;;;;78.68;40.75;;;2.90;99.90;;;;;;5030264;28;20073;-75
2022/03/24 05:22:09;;;;;;;84.35;42.15;;;3.00;99.90;;;;;;5021308;28;20061;-75
2022/03/24 05:24:37;;;;;;;83.03;41.67;;;2.90;99.90;;;;;;5027285;28;20037;-75
2022/03/24 05:27:03;;;;;;;75.75;40.25;;;3.00;99.90;;;;;;5029874;28;20116;-75
2022/03/24 05:29:28;;;;;;;74.43;41.90;;;2.90;99.90;;;;;;5031473;28;20545;-75
2022/03/24 05:31:54;;;;;;;82.53;44.00;;;2.90;99.90;;;;;;5030130;28;20124;-75
2022/03/24 05:34:20;;;;;;;81.10;43.78;;;2.80;99.90;;;;;;5028705;28;20090;-75
2022/03/24 05:36:46;;;;;;;79.13;42.05;;;2.90;99.90;;;;;;5028206;28;20077;-75
2022/03/24 05:39:11;;;;;;;71.72;40.53;;;2.80;99.90;;;;;;5031674;28;20029;-75
2022/03/24 05:41:37;;;;;;;73.25;38.35;;;2.80;99.90;;;;;;5031261;28;20036;-75
2022/03/24 05:44:03;;;;;;;75.78;40.90;;;2.80;99.90;;;;;;5031475;28;20072;-75
2022/03/24 05:46:34;;;;;;;79.80;41.70;;;2.80;99.90;;;;;;5029545;28;20083;-75
2022/03/24 05:49:01;;;;;;;73.25;39.42;;;2.80;99.90;;;;;;5031505;28;20072;-75
2022/03/24 05:51:27;;;;;;;77.53;41.17;;;2.70;99.90;;;;;;5030340;28;20076;-75
2022/03/24 05:53:54;;;;;;;75.93;42.30;;;2.70;99.90;;;;;;5031472;28;20060;-75
2022/03/24 05:56:20;;;;;;;74.10;40.70;;;2.80;99.90;;;;;;5029744;28;20167;-75
2022/03/24 05:58:46;;;;;;;82.63;42.42;;;2.70;99.90;;;;;;5031237;28;20033;-75
2022/03/24 06:01:14;;;;;;;81.75;39.53;;;2.70;99.90;;;;;;5028830;28;20036;-75
2022/03/24 06:03:42;;;;;;;66.90;37.85;;;2.90;99.90;;;;;;5029177;28;20072;-75
2022/03/24 06:06:08;;;;;;;69.53;36.65;;;2.60;99.90;;;;;;5027096;28;20041;-75
2022/03/24 06:08:35;;;;;;;67.05;37.40;;;2.60;99.90;;;;;;5029798;28;20045;-75
2022/03/24 06:11:01;;;;;;;69.45;38.13;;;2.60;99.90;;;;;;5030784;28;20076;-75
2022/03/24 06:13:28;;;;;;;71.68;40.00;;;2.70;99.90;;;;;;5029282;28;20045;-75
2022/03/24 06:15:55;;;;;;;71.18;38.85;;;2.90;99.90;;;;;;5031895;28;20120;-75
2022/03/24 06:18:21;;;;;;;75.57;40.80;;;2.70;99.90;;;;;;5030903;28;20041;-75
2022/03/24 06:20:47;;;;;;;78.47;41.88;;;2.80;99.90;;;;;;5030997;28;20041;-75
2022/03/24 06:23:12;;;;;;;76.97;41.92;;;2.80;99.90;;;;;;5030846;28;20049;-75
2022/03/24 06:25:42;;;;;;;82.70;43.53;;;2.90;99.90;;;;;;5030759;28;20047;-75
2022/03/24 06:28:08;;;;;;;78.07;44.05;;;2.90;99.90;;;;;;5016887;28;20076;-75
2022/03/24 06:30:34;;;;;;;87.10;43.88;;;3.00;99.90;;;;;;5032211;28;20072;-75
2022/03/24 06:33:00;;;;;;;88.65;47.70;;;3.00;99.90;;;;;;5030270;28;20054;-75
2022/03/24 06:35:26;;;;;;;85.57;44.40;;;3.10;99.90;;;;;;5031488;28;20503;-76
2022/03/24 06:37:53;;;;;;;80.30;43.45;;;3.10;99.90;;;;;;5032142;28;20426;-75
2022/03/24 06:40:19;;;;;;;79.63;44.55;;;3.20;99.90;;;;;;5030296;28;20064;-75
2022/03/24 06:42:45;;;;;;;85.65;45.03;;;3.20;99.90;;;;;;5031927;28;20087;-75
2022/03/24 06:45:13;;;;;;;88.30;46.72;;;3.30;99.90;;;;;;5028758;28;20041;-75
2022/03/24 06:47:40;;;;;;;83.47;45.63;;;3.40;99.90;;;;;;5062141;28;20163;-75
2022/03/24 06:50:10;;;;;;;86.45;45.70;;;3.50;99.90;;;;;;5028951;28;20038;-75
2022/03/24 06:52:37;;;;;;;85.63;45.75;;;3.50;99.90;;;;;;5029840;28;20092;-75
2022/03/24 06:55:05;;;;;;;93.75;46.85;;;3.60;99.90;;;;;;5029568;28;20044;-75
2022/03/24 06:57:31;;;;;;;83.57;46.17;;;3.70;99.90;;;;;;5032990;28;20052;-75
2022/03/24 06:59:57;;;;;;;88.50;45.83;;;3.80;99.90;;;;;;5027033;28;20493;-75
2022/03/24 07:02:23;;;;;;;88.28;46.72;;;3.90;99.90;;;;;;5030943;28;20038;-74
2022/03/24 07:04:49;;;;;;;83.22;45.50;;;4.00;99.90;;;;;;5029968;28;20130;-75
2022/03/24 07:07:15;;;;;;;86.07;46.95;;;4.10;99.90;;;;;;5032080;28;20049;-75
2022/03/24 07:09:41;;;;;;;88.13;46.10;;;4.20;99.90;;;;;;5028252;28;20044;-75
2022/03/24 07:12:07;;;;;;;83.00;47.72;;;4.30;99.90;;;;;;5030208;28;20069;-75
2022/03/24 07:14:32;;;;;;;85.95;46.00;;;4.30;99.90;;;;;;5029630;28;20040;-75
2022/03/24 07:16:58;;;;;;;79.93;45.20;;;4.40;99.90;;;;;;5026958;28;20049;-75
2022/03/24 07:19:24;;;;;;;81.88;46.13;;;4.50;99.90;;;;;;5029520;28;20034;-75
2022/03/24 07:21:50;;;;;;;81.50;45.97;;;4.60;99.90;;;;;;5030397;28;20072;-75
2022/03/24 07:24:15;;;;;;;83.63;45.83;;;4.70;99.90;;;;;;5011667;28;20116;-75
2022/03/24 07:26:41;;;;;;;85.95;45.67;;;4.90;99.90;;;;;;5028197;28;20042;-75
2022/03/24 07:29:10;;;;;;;81.00;45.05;;;5.00;99.90;;;;;;5028567;28;20037;-75
2022/03/24 07:31:37;;;;;;;79.55;44.20;;;5.10;99.90;;;;;;5029870;28;20044;-75
2022/03/24 07:34:02;;;;;;;80.90;44.03;;;5.30;99.90;;;;;;5030198;28;20049;-74
2022/03/24 07:36:28;;;;;;;73.32;43.35;;;5.40;99.90;;;;;;5028213;28;20045;-75
2022/03/24 07:38:56;;;;;;;69.10;41.90;;;5.90;99.90;;;;;;5013707;28;20052;-75
2022/03/24 07:41:23;;;;;;;72.68;42.22;;;6.30;99.90;;;;;;5029273;28;20033;-75
2022/03/24 07:43:50;;;;;;;76.97;44.95;;;6.80;99.90;;;;;;5031455;28;20038;-75
2022/03/24 07:46:16;;;;;;;65.15;40.08;;;7.40;99.90;;;;;;5032176;28;20032;-75
2022/03/24 07:48:46;;;;;;;71.72;41.85;;;8.40;99.90;;;;;;5031223;28;20049;-75
2022/03/24 07:51:13;;;;;;;64.97;39.25;;;9.40;99.90;;;;;;5029126;28;20033;-74
2022/03/24 07:53:48;;;;;;;63.90;37.85;;;10.30;99.90;;;;;;5017630;28;20127;-73
2022/03/24 07:56:15;;;;;;;64.00;37.40;;;11.30;99.90;;;;;;5027678;28;20537;-76
2022/03/24 07:58:41;;;;;;;56.28;37.15;;;11.80;99.90;;;;;;5037836;28;20045;-75
2022/03/24 08:01:07;;;;;;;52.13;33.33;;;12.50;99.90;;;;;;5030448;28;20068;-75
2022/03/24 08:03:34;;;;;;;60.15;34.92;;;12.90;99.90;;;;;;5032952;28;20049;-75
2022/03/24 08:06:01;;;;;;;50.55;32.78;;;13.50;99.90;;;;;;5028604;28;20045;-76
2022/03/24 08:08:26;;;;;;;46.60;33.95;;;13.80;99.80;;;;;;5034609;28;20037;-76
2022/03/24 08:10:53;;;;;;;53.00;34.35;;;14.20;98.90;;;;;;5030019;28;20094;-76
2022/03/24 08:13:20;;;;;;;54.25;35.92;;;14.60;97.50;;;;;;5041287;28;20048;-76
2022/03/24 08:15:47;;;;;;;47.38;31.88;;;14.90;96.60;;;;;;5037632;28;20044;-76
2022/03/24 08:18:14;;;;;;;44.17;32.28;;;15.10;95.40;;;;;;5039577;28;20041;-74
2022/03/24 08:20:42;;;;;;;42.63;30.75;;;15.60;94.70;;;;;;5038169;28;20041;-75
2022/03/24 08:23:09;;;;;;;50.35;32.47;;;15.20;92.90;;;;;;5033437;28;20048;-73
2022/03/24 08:25:35;;;;;;;46.50;32.17;;;15.40;92.90;;;;;;5026311;28;20439;-74
2022/03/24 08:28:02;;;;;;;49.05;33.10;;;15.60;92.50;;;;;;5039406;28;20044;-75
2022/03/24 08:30:28;;;;;;;45.55;33.00;;;15.40;91.90;;;;;;5035691;28;20038;-74
2022/03/24 08:32:54;;;;;;;45.60;31.27;;;15.70;92.00;;;;;;5044074;28;20528;-74
2022/03/24 08:35:20;;;;;;;43.63;31.00;;;15.50;91.30;;;;;;5033285;28;20049;-74
2022/03/24 08:37:47;;;;;;;37.28;29.13;;;15.60;90.90;;;;;;5041182;28;20042;-75
2022/03/24 08:40:13;;;;;;;43.10;31.00;;;16.20;90.80;;;;;;5035885;28;20033;-74
2022/03/24 08:42:40;;;;;;;40.05;28.38;;;16.50;89.90;;;;;;5025918;28;20048;-73
2022/03/24 08:45:12;;;;;;;40.65;29.02;;;16.70;88.30;;;;;;5033733;28;20049;-74
2022/03/24 08:47:38;;;;;;;39.63;29.60;;;17.30;85.50;;;;;;5030329;28;20061;-74
2022/03/24 08:50:06;;;;;;;45.47;32.05;;;17.00;84.90;;;;;;5031546;28;20743;-74
2022/03/24 08:52:32;;;;;;;42.75;30.83;;;17.60;84.70;;;;;;5034672;28;20109;-74
2022/03/24 08:54:58;;;;;;;41.50;29.52;;;17.90;84.70;;;;;;5036658;28;20041;-73
2022/03/24 08:57:27;;;;;;;41.58;30.83;;;18.00;83.80;;;;;;5002333;28;20072;-73
2022/03/24 08:59:54;;;;;;;42.97;29.55;;;18.20;81.70;;;;;;5036537;28;20112;-73
2022/03/24 09:02:20;;;;;;;43.17;29.00;;;18.40;80.00;;;;;;5036054;28;20085;-74
2022/03/24 09:04:47;;;;;;;43.13;28.52;;;18.40;80.30;;;;;;5033063;28;20034;-73
2022/03/24 09:07:13;;;;;;;44.03;30.73;;;18.90;78.20;;;;;;5034528;28;20038;-74
2022/03/24 09:09:40;;;;;;;41.92;29.70;;;18.90;78.20;;;;;;5035756;28;20557;-73
2022/03/24 09:12:07;;;;;;;41.13;29.20;;;18.90;77.20;;;;;;5035934;28;20049;-73
2022/03/24 09:14:32;;;;;;;38.78;26.40;;;19.30;77.50;;;;;;5035751;28;20104;-73
2022/03/24 09:16:58;;;;;;;39.20;27.55;;;19.40;75.60;;;;;;5035574;28;20132;-73
2022/03/24 09:19:24;;;;;;;41.22;27.58;;;19.70;73.80;;;;;;5034650;28;20053;-73
2022/03/24 09:21:50;;;;;;;38.70;27.13;;;19.80;73.00;;;;;;5035914;28;20037;-74
2022/03/24 09:24:16;;;;;;;38.58;27.60;;;19.60;71.60;;;;;;5035425;28;20033;-73
2022/03/24 09:26:42;;;;;;;40.90;27.23;;;19.80;70.80;;;;;;5035724;28;20080;-74
2022/03/24 09:29:09;;;;;;;38.13;26.30;;;19.80;70.50;;;;;;5035781;28;20073;-74
2022/03/24 09:31:35;;;;;;;36.20;26.33;;;20.20;70.30;;;;;;5034331;28;20037;-73
2022/03/24 09:34:02;;;;;;;42.08;27.25;;;19.90;68.30;;;;;;5035593;28;20111;-74
2022/03/24 09:36:28;;;;;;;40.30;27.23;;;20.30;68.80;;;;;;5036058;28;20120;-74
2022/03/24 09:38:55;;;;;;;37.05;26.23;;;20.90;67.70;;;;;;5034535;28;20069;-74
2022/03/24 09:41:21;;;;;;;40.63;27.48;;;20.90;67.50;;;;;;5033000;28;20037;-74
2022/03/24 09:43:47;;;;;;;38.45;27.92;;;20.70;66.50;;;;;;5033094;28;20509;-74
2022/03/24 09:46:15;;;;;;;34.45;26.58;;;21.20;65.80;;;;;;5018621;28;20042;-74
2022/03/24 09:48:41;;;;;;;38.88;25.50;;;21.60;64.70;;;;;;5031431;28;20048;-74
2022/03/24 09:51:07;;;;;;;33.88;24.13;;;21.70;63.90;;;;;;5032501;28;20038;-74
2022/03/24 09:53:33;;;;;;;36.63;25.98;;;21.40;64.50;;;;;;5032501;28;20048;-74
2022/03/24 09:55:59;;;;;;;43.30;26.13;;;21.60;64.00;;;;;;5032874;28;20053;-74
2022/03/24 09:58:28;;;;;;;39.38;26.60;;;21.60;63.90;;;;;;5032395;28;20049;-75
2022/03/24 10:00:53;;;;;;;36.65;25.98;;;21.70;62.40;;;;;;5032545;28;20038;-74
2022/03/24 10:03:22;;;;;;;38.83;25.92;;;21.90;63.10;;;;;;5030798;28;20043;-74
2022/03/24 10:05:56;;;;;;;35.38;26.25;;;21.90;62.50;;;;;;5032551;28;20041;-74
2022/03/24 10:08:22;;;;;;;35.15;25.80;;;22.00;62.10;;;;;;5018992;28;20410;-71
2022/03/24 10:10:48;;;;;;;32.58;25.02;;;21.90;62.20;;;;;;5031542;28;20483;-72
2022/03/24 10:13:24;;;;;;;39.90;26.35;;;21.90;61.90;;;;;;5031498;28;20029;-72
2022/03/24 10:15:50;;;;;;;33.97;25.90;;;22.20;60.50;;;;;;5031691;28;20188;-72
2022/03/24 10:18:16;;;;;;;35.45;24.88;;;22.50;61.00;;;;;;5030833;28;20121;-72
2022/03/24 10:20:42;;;;;;;32.97;23.98;;;22.70;59.10;;;;;;5013876;28;20033;-72
2022/03/24 10:23:10;;;;;;;36.33;24.75;;;22.20;58.10;;;;;;5030131;28;20038;-72
2022/03/24 10:25:42;;;;;;;35.83;25.88;;;22.60;58.90;;;;;;5031409;28;20080;-72
2022/03/24 10:28:17;;;;;;;33.78;25.20;;;23.20;57.20;;;;;;5031086;28;20112;-72
2022/03/24 10:30:59;;;;;;;35.65;25.20;;;23.20;56.60;;;;;;5030898;28;20121;-72
2022/03/24 10:33:47;;;;;;;39.15;26.05;;;23.50;57.50;;;;;;5017532;28;20057;-72
2022/03/24 10:36:17;;;;;;;33.08;25.02;;;23.50;55.00;;;;;;5031892;28;20164;-72
2022/03/24 10:38:52;;;;;;;36.03;23.85;;;23.60;55.40;;;;;;5031700;28;20048;-72
2022/03/24 10:41:29;;;;;;;34.35;24.45;;;23.60;53.80;;;;;;5031478;28;20094;-72
2022/03/24 10:44:04;;;;;;;30.65;24.48;;;23.60;53.80;;;;;;5031880;28;20044;-72
2022/03/24 10:46:35;;;;;;;31.77;24.45;;;23.30;55.50;;;;;;5031729;28;20128;-72
2022/03/24 10:49:23;;;;;;;37.67;23.80;;;23.00;54.50;;;;;;5031644;28;20068;-71
2022/03/24 10:51:50;;;;;;;36.25;23.75;;;23.30;53.00;;;;;;5030099;28;20052;-72
2022/03/24 10:54:47;;;;;;;39.05;24.58;;;23.40;53.40;;;;;;5031414;28;20095;-72
2022/03/24 10:57:24;;;;;;;35.20;25.25;;;23.60;53.00;;;;;;5026560;28;20050;-72
2022/03/24 10:59:58;;;;;;;34.58;24.13;;;23.50;52.60;;;;;;5049746;28;20077;-72
2022/03/24 11:02:25;;;;;;;32.63;23.70;;;23.40;52.20;;;;;;5000853;28;20038;-72
2022/03/24 11:04:52;;;;;;;34.50;25.48;;;23.10;50.50;;;;;;5031224;28;20087;-72
2022/03/24 11:07:28;;;;;;;33.22;22.90;;;23.20;52.20;;;;;;5031234;28;20581;-72
2022/03/24 11:09:54;;;;;;;32.58;23.38;;;23.50;51.00;;;;;;5030998;28;20551;-72
2022/03/24 11:12:36;;;;;;;29.10;20.77;;;23.50;50.50;;;;;;5030942;28;20041;-72
2022/03/24 11:15:04;;;;;;;28.90;21.83;;;23.80;48.50;;;;;;5031473;28;20038;-73
2022/03/24 11:17:32;;;;;;;34.17;23.45;;;23.90;49.10;;;;;;5013171;28;20037;-73
2022/03/24 11:20:02;;;;;;;34.85;24.40;;;24.10;49.70;;;;;;5031130;28;20045;-73
2022/03/24 11:23:01;;;;;;;33.65;22.27;;;23.90;49.60;;;;;;5026345;28;20033;-73
2022/03/24 11:25:29;;;;;;;28.38;21.50;;;23.70;48.00;;;;;;5005424;28;20063;-73
2022/03/24 11:27:56;;;;;;;27.13;20.60;;;23.40;48.80;;;;;;5021849;28;20049;-73
2022/03/24 11:30:23;;;;;;;31.52;22.00;;;22.70;48.30;;;;;;5025656;28;20112;-73
2022/03/24 11:32:52;;;;;;;31.40;22.20;;;22.30;49.60;;;;;;5029581;28;20044;-73
2022/03/24 11:35:19;;;;;;;26.83;21.75;;;22.20;49.70;;;;;;5030227;28;20098;-74
2022/03/24 11:37:47;;;;;;;29.33;20.85;;;22.10;49.20;;;;;;5028751;28;20045;-73
2022/03/24 11:40:25;;;;;;;28.00;20.88;;;22.00;49.30;;;;;;5012924;28;20326;-73
2022/03/24 11:42:52;;;;;;;31.90;22.98;;;21.80;47.80;;;;;;5026887;28;20038;-73
2022/03/24 11:45:32;;;;;;;34.70;21.67;;;21.30;50.00;;;;;;5029168;28;20048;-73
2022/03/24 11:48:10;;;;;;;28.60;20.95;;;21.40;48.60;;;;;;5030368;28;20100;-73
2022/03/24 11:50:55;;;;;;;28.52;20.23;;;21.40;49.30;;;;;;5030617;28;20517;-73
2022/03/24 11:53:32;;;;;;;28.40;20.25;;;21.40;47.90;;;;;;5030411;28;20037;-73
2022/03/24 11:56:01;;;;;;;23.15;18.25;;;21.30;46.80;;;;;;5030482;28;20600;-73
2022/03/24 11:59:06;;;;;;;29.58;20.17;;;21.20;46.10;;;;;;5030229;28;20041;-73
2022/03/24 12:01:33;;;;;;;26.98;20.75;;;21.10;46.10;;;;;;5029722;28;20041;-73
2022/03/24 12:04:14;;;;;;;26.70;20.83;;;21.10;47.20;;;;;;5030198;28;20037;-73
2022/03/24 12:06:48;;;;;;;28.73;19.88;;;21.30;48.60;;;;;;5030224;28;20041;-73
2022/03/24 12:09:26;;;;;;;24.95;18.90;;;21.40;47.30;;;;;;5028911;28;20053;-73
2022/03/24 12:12:04;;;;;;;29.50;20.05;;;21.50;44.50;;;;;;5030266;28;20160;-73
2022/03/24 12:14:29;;;;;;;25.27;19.23;;;21.40;46.10;;;;;;5026606;28;20167;-73
2022/03/24 12:16:56;;;;;;;25.08;19.45;;;21.40;46.30;;;;;;5025973;28;20128;-73
2022/03/24 12:19:40;;;;;;;22.13;17.67;;;21.30;43.40;;;;;;5045510;28;20052;-74
2022/03/24 12:22:24;;;;;;;22.98;18.15;;;21.10;43.20;;;;;;5030225;28;20491;-73
2022/03/24 12:25:00;;;;;;;28.38;18.10;;;21.10;42.50;;;;;;5029180;28;20046;-73
2022/03/24 12:27:26;;;;;;;28.08;20.27;;;21.20;44.60;;;;;;5029366;28;20049;-74
2022/03/24 12:30:12;;;;;;;23.27;17.98;;;21.20;45.40;;;;;;5029233;28;20045;-73
2022/03/24 12:32:38;;;;;;;25.60;19.35;;;21.10;42.70;;;;;;5029787;28;20482;-74
2022/03/24 12:35:06;;;;;;;26.75;18.48;;;21.20;43.60;;;;;;5038786;28;20122;-74
2022/03/24 12:37:31;;;;;;;26.48;16.08;;;21.30;44.30;;;;;;5035555;28;20451;-74